sensor_id;sensor_type;location;lat;lon;timestamp;temperature;humidity
2489;DHT22;1255;48.716;9.124;2023-05-16T00:00:29;11.40;99.90
2489;DHT22;1255;48.716;9.124;2023-05-16T00:02:59;11.40;99.90
2489;DHT22;1255;48.716;9.124;2023-05-16T00:05:28;11.40;99.90
2489;DHT22;1255;48.716;9.124;2023-05-16T00:07:55;11.50;99.90
2489;DHT22;1255;48.716;9.124;2023-05-16T00:10:22;11.50;99.90
2489;DHT22;1255;48.716;9.124;2023-05-16T00:12:48;11.50;99.90
2489;DHT22;1255;48.716;9.124;2023-05-16T00:15:17;11.50;99.90
2489;DHT22;1255;48.716;9.124;2023-05-16T00:17:44;11.50;99.90
2489;DHT22;1255;48.716;9.124;2023-05-16T00:20:11;11.50;99.90
2489;DHT22;1255;48.716;9.124;2023-05-16T00:22:40;11.50;99.90
2489;DHT22;1255;48.716;9.124;2023-05-16T00:25:07;11.50;99.90
2489;DHT22;1255;48.716;9.124;2023-05-16T00:27:34;11.50;99.90
2489;DHT22;1255;48.716;9.124;2023-05-16T00:30:01;11.50;99.90
2489;DHT22;1255;48.716;9.124;2023-05-16T00:32:28;11.50;99.90
2489;DHT22;1255;48.716;9.124;2023-05-16T00:34:55;11.60;99.90
2489;DHT22;1255;48.716;9.124;2023-05-16T00:37:22;11.60;99.90
2489;DHT22;1255;48.716;9.124;2023-05-16T00:39:50;11.60;99.90
2489;DHT22;1255;48.716;9.124;2023-05-16T00:42:18;11.60;99.90
2489;DHT22;1255;48.716;9.124;2023-05-16T00:44:45;11.70;99.90
2489;DHT22;1255;48.716;9.124;2023-05-16T00:47:12;11.70;99.90
2489;DHT22;1255;48.716;9.124;2023-05-16T00:49:39;11.70;99.90
2489;DHT22;1255;48.716;9.124;2023-05-16T00:52:05;11.70;99.90
2489;DHT22;1255;48.716;9.124;2023-05-16T00:54:33;11.70;99.90
2489;DHT22;1255;48.716;9.124;2023-05-16T00:57:02;11.70;99.90
2489;DHT22;1255;48.716;9.124;2023-05-16T00:59:30;11.70;99.90
2489;DHT22;1255;48.716;9.124;2023-05-16T01:01:57;11.60;99.90
2489;DHT22;1255;48.716;9.124;2023-05-16T01:04:24;11.70;99.90
2489;DHT22;1255;48.716;9.124;2023-05-16T01:06:50;11.70;99.90
2489;DHT22;1255;48.716;9.124;2023-05-16T01:09:17;11.60;99.90
2489;DHT22;1255;48.716;9.124;2023-05-16T01:11:49;11.70;99.90
2489;DHT22;1255;48.716;9.124;2023-05-16T01:14:25;11.60;99.90
2489;DHT22;1255;48.716;9.124;2023-05-16T01:17:02;11.60;99.90
2489;DHT22;1255;48.716;9.124;2023-05-16T01:19:46;11.60;99.90
2489;DHT22;1255;48.716;9.124;2023-05-16T01:22:25;11.50;99.90
2489;DHT22;1255;48.716;9.124;2023-05-16T01:25:04;11.50;99.90
2489;DHT22;1255;48.716;9.124;2023-05-16T01:27:34;11.50;99.90
2489;DHT22;1255;48.716;9.124;2023-05-16T01:30:12;11.50;99.90
2489;DHT22;1255;48.716;9.124;2023-05-16T01:32:39;11.50;99.90
2489;DHT22;1255;48.716;9.124;2023-05-16T01:35:07;11.50;99.90
2489;DHT22;1255;48.716;9.124;2023-05-16T01:37:36;11.50;99.90
2489;DHT22;1255;48.716;9.124;2023-05-16T01:40:11;11.50;99.90
2489;DHT22;1255;48.716;9.124;2023-05-16T01:42:44;11.50;99.90
2489;DHT22;1255;48.716;9.124;2023-05-16T01:45:17;11.40;99.90
2489;DHT22;1255;48.716;9.124;2023-05-16T01:47:51;11.40;99.90
2489;DHT22;1255;48.716;9.124;2023-05-16T01:50:22;11.40;99.90
2489;DHT22;1255;48.716;9.124;2023-05-16T01:52:55;11.40;99.90
2489;DHT22;1255;48.716;9.124;2023-05-16T01:55:28;11.30;99.90
2489;DHT22;1255;48.716;9.124;2023-05-16T01:57:58;11.30;99.90
2489;DHT22;1255;48.716;9.124;2023-05-16T02:00:25;11.30;99.90
2489;DHT22;1255;48.716;9.124;2023-05-16T02:02:51;11.20;99.90
2489;DHT22;1255;48.716;9.124;2023-05-16T02:05:18;11.10;99.90
2489;DHT22;1255;48.716;9.124;2023-05-16T02:07:45;11.10;99.90
2489;DHT22;1255;48.716;9.124;2023-05-16T02:10:12;11.00;99.90
2489;DHT22;1255;48.716;9.124;2023-05-16T02:12:39;11.00;99.90
2489;DHT22;1255;48.716;9.124;2023-05-16T02:15:08;10.90;99.90
2489;DHT22;1255;48.716;9.124;2023-05-16T02:17:35;10.90;99.90
2489;DHT22;1255;48.716;9.124;2023-05-16T02:20:02;10.90;99.90
2489;DHT22;1255;48.716;9.124;2023-05-16T02:22:31;10.90;99.90
2489;DHT22;1255;48.716;9.124;2023-05-16T02:24:59;10.80;99.90
2489;DHT22;1255;48.716;9.124;2023-05-16T02:27:26;10.80;99.90
2489;DHT22;1255;48.716;9.124;2023-05-16T02:29:52;10.80;99.90
2489;DHT22;1255;48.716;9.124;2023-05-16T02:32:20;10.80;99.90
2489;DHT22;1255;48.716;9.124;2023-05-16T02:34:47;10.80;99.90
2489;DHT22;1255;48.716;9.124;2023-05-16T02:37:14;10.80;99.90
2489;DHT22;1255;48.716;9.124;2023-05-16T02:39:41;10.80;99.90
2489;DHT22;1255;48.716;9.124;2023-05-16T02:42:07;10.80;99.90
2489;DHT22;1255;48.716;9.124;2023-05-16T02:44:34;10.80;99.90
2489;DHT22;1255;48.716;9.124;2023-05-16T02:47:01;10.80;99.90
2489;DHT22;1255;48.716;9.124;2023-05-16T02:49:29;10.80;99.90
2489;DHT22;1255;48.716;9.124;2023-05-16T02:51:55;10.90;99.90
2489;DHT22;1255;48.716;9.124;2023-05-16T02:54:22;10.90;99.90
2489;DHT22;1255;48.716;9.124;2023-05-16T02:56:49;10.90;99.90
2489;DHT22;1255;48.716;9.124;2023-05-16T02:59:15;10.90;99.90
2489;DHT22;1255;48.716;9.124;2023-05-16T03:01:42;10.90;99.90
2489;DHT22;1255;48.716;9.124;2023-05-16T03:04:09;10.90;99.90
2489;DHT22;1255;48.716;9.124;2023-05-16T03:06:37;10.90;99.90
2489;DHT22;1255;48.716;9.124;2023-05-16T03:09:03;10.80;99.90
2489;DHT22;1255;48.716;9.124;2023-05-16T03:11:30;10.80;99.90
2489;DHT22;1255;48.716;9.124;2023-05-16T03:13:57;10.80;99.90
2489;DHT22;1255;48.716;9.124;2023-05-16T03:16:24;10.80;99.90
2489;DHT22;1255;48.716;9.124;2023-05-16T03:18:51;10.80;99.90
2489;DHT22;1255;48.716;9.124;2023-05-16T03:21:17;10.80;99.90
2489;DHT22;1255;48.716;9.124;2023-05-16T03:23:45;10.80;99.90
2489;DHT22;1255;48.716;9.124;2023-05-16T03:26:12;10.70;99.90
2489;DHT22;1255;48.716;9.124;2023-05-16T03:28:39;10.70;99.90
2489;DHT22;1255;48.716;9.124;2023-05-16T03:31:05;10.70;99.90
2489;DHT22;1255;48.716;9.124;2023-05-16T03:33:32;10.60;99.90
2489;DHT22;1255;48.716;9.124;2023-05-16T03:35:59;10.60;99.90
2489;DHT22;1255;48.716;9.124;2023-05-16T03:38:25;10.60;99.90
2489;DHT22;1255;48.716;9.124;2023-05-16T03:40:53;10.60;99.90
2489;DHT22;1255;48.716;9.124;2023-05-16T03:43:20;10.60;99.90
2489;DHT22;1255;48.716;9.124;2023-05-16T03:45:47;10.50;99.90
2489;DHT22;1255;48.716;9.124;2023-05-16T03:48:13;10.50;99.90
2489;DHT22;1255;48.716;9.124;2023-05-16T03:50:40;10.50;99.90
2489;DHT22;1255;48.716;9.124;2023-05-16T03:53:07;10.50;99.90
2489;DHT22;1255;48.716;9.124;2023-05-16T03:55:34;10.40;99.90
2489;DHT22;1255;48.716;9.124;2023-05-16T03:58:02;10.40;99.90
2489;DHT22;1255;48.716;9.124;2023-05-16T04:00:29;10.40;99.90
2489;DHT22;1255;48.716;9.124;2023-05-16T04:02:55;10.40;99.90
2489;DHT22;1255;48.716;9.124;2023-05-16T04:05:22;10.30;99.90
2489;DHT22;1255;48.716;9.124;2023-05-16T04:07:49;10.30;99.90
2489;DHT22;1255;48.716;9.124;2023-05-16T04:10:15;10.40;99.90
2489;DHT22;1255;48.716;9.124;2023-05-16T04:12:42;10.30;99.90
2489;DHT22;1255;48.716;9.124;2023-05-16T04:15:11;10.40;99.90
2489;DHT22;1255;48.716;9.124;2023-05-16T04:17:38;10.30;99.90
2489;DHT22;1255;48.716;9.124;2023-05-16T04:20:05;10.30;99.90
2489;DHT22;1255;48.716;9.124;2023-05-16T04:22:32;10.40;99.90
2489;DHT22;1255;48.716;9.124;2023-05-16T04:24:59;10.40;99.90
2489;DHT22;1255;48.716;9.124;2023-05-16T04:27:25;10.50;99.90
2489;DHT22;1255;48.716;9.124;2023-05-16T04:29:53;10.50;99.90
2489;DHT22;1255;48.716;9.124;2023-05-16T04:32:21;10.60;99.90
2489;DHT22;1255;48.716;9.124;2023-05-16T04:34:48;10.60;99.90
2489;DHT22;1255;48.716;9.124;2023-05-16T04:37:18;10.60;99.90
2489;DHT22;1255;48.716;9.124;2023-05-16T04:39:45;10.70;99.90
2489;DHT22;1255;48.716;9.124;2023-05-16T04:42:12;10.80;99.90
2489;DHT22;1255;48.716;9.124;2023-05-16T04:44:38;10.80;99.90
2489;DHT22;1255;48.716;9.124;2023-05-16T04:47:05;10.90;99.90
2489;DHT22;1255;48.716;9.124;2023-05-16T04:49:33;10.90;99.90
2489;DHT22;1255;48.716;9.124;2023-05-16T04:52:01;11.00;99.90
2489;DHT22;1255;48.716;9.124;2023-05-16T04:54:27;11.00;99.90
2489;DHT22;1255;48.716;9.124;2023-05-16T04:56:54;11.00;99.90
2489;DHT22;1255;48.716;9.124;2023-05-16T04:59:21;11.00;99.90
2489;DHT22;1255;48.716;9.124;2023-05-16T05:01:48;11.10;99.90
2489;DHT22;1255;48.716;9.124;2023-05-16T05:04:15;11.10;99.90
2489;DHT22;1255;48.716;9.124;2023-05-16T05:06:43;11.10;99.90
2489;DHT22;1255;48.716;9.124;2023-05-16T05:09:10;11.10;99.90
2489;DHT22;1255;48.716;9.124;2023-05-16T05:11:36;11.20;99.90
2489;DHT22;1255;48.716;9.124;2023-05-16T05:14:03;11.20;99.90
2489;DHT22;1255;48.716;9.124;2023-05-16T05:16:30;11.20;99.90
2489;DHT22;1255;48.716;9.124;2023-05-16T05:18:57;11.20;99.90
2489;DHT22;1255;48.716;9.124;2023-05-16T05:21:24;11.20;99.90
2489;DHT22;1255;48.716;9.124;2023-05-16T05:23:52;11.20;99.90
2489;DHT22;1255;48.716;9.124;2023-05-16T05:26:18;11.10;99.90
2489;DHT22;1255;48.716;9.124;2023-05-16T05:28:47;11.20;99.90
2489;DHT22;1255;48.716;9.124;2023-05-16T05:31:14;11.20;99.90
2489;DHT22;1255;48.716;9.124;2023-05-16T05:33:40;11.30;99.90
2489;DHT22;1255;48.716;9.124;2023-05-16T05:36:08;11.40;99.90
2489;DHT22;1255;48.716;9.124;2023-05-16T05:38:35;11.40;99.90
2489;DHT22;1255;48.716;9.124;2023-05-16T05:41:03;11.40;99.90
2489;DHT22;1255;48.716;9.124;2023-05-16T05:43:30;11.40;99.90
2489;DHT22;1255;48.716;9.124;2023-05-16T05:45:56;11.40;99.90
2489;DHT22;1255;48.716;9.124;2023-05-16T05:48:23;11.40;99.90
2489;DHT22;1255;48.716;9.124;2023-05-16T05:50:50;11.40;99.90
2489;DHT22;1255;48.716;9.124;2023-05-16T05:53:17;11.40;99.90
2489;DHT22;1255;48.716;9.124;2023-05-16T05:55:44;11.40;99.90
2489;DHT22;1255;48.716;9.124;2023-05-16T05:58:12;11.40;99.90
2489;DHT22;1255;48.716;9.124;2023-05-16T06:00:39;11.50;99.90
2489;DHT22;1255;48.716;9.124;2023-05-16T06:03:06;11.50;99.90
2489;DHT22;1255;48.716;9.124;2023-05-16T06:05:32;11.50;99.90
2489;DHT22;1255;48.716;9.124;2023-05-16T06:07:59;11.50;99.90
2489;DHT22;1255;48.716;9.124;2023-05-16T06:10:26;11.50;99.90
2489;DHT22;1255;48.716;9.124;2023-05-16T06:12:52;11.50;99.90
2489;DHT22;1255;48.716;9.124;2023-05-16T06:15:20;11.50;99.90
2489;DHT22;1255;48.716;9.124;2023-05-16T06:17:47;11.50;99.90
2489;DHT22;1255;48.716;9.124;2023-05-16T06:20:14;11.50;99.90
2489;DHT22;1255;48.716;9.124;2023-05-16T06:22:41;11.50;99.90
2489;DHT22;1255;48.716;9.124;2023-05-16T06:25:08;11.50;99.90
2489;DHT22;1255;48.716;9.124;2023-05-16T06:27:35;11.60;99.90
2489;DHT22;1255;48.716;9.124;2023-05-16T06:30:02;11.70;99.90
2489;DHT22;1255;48.716;9.124;2023-05-16T06:32:30;11.70;99.90
2489;DHT22;1255;48.716;9.124;2023-05-16T06:34:57;11.70;99.90
2489;DHT22;1255;48.716;9.124;2023-05-16T06:37:23;11.70;99.90
2489;DHT22;1255;48.716;9.124;2023-05-16T06:39:50;11.70;99.90
2489;DHT22;1255;48.716;9.124;2023-05-16T06:42:17;11.70;99.90
2489;DHT22;1255;48.716;9.124;2023-05-16T06:44:45;11.60;99.90
2489;DHT22;1255;48.716;9.124;2023-05-16T06:47:11;11.60;99.90
2489;DHT22;1255;48.716;9.124;2023-05-16T06:49:39;11.60;99.90
2489;DHT22;1255;48.716;9.124;2023-05-16T06:52:06;11.60;99.90
2489;DHT22;1255;48.716;9.124;2023-05-16T06:54:33;11.70;99.90
2489;DHT22;1255;48.716;9.124;2023-05-16T06:56:59;11.80;99.90
2489;DHT22;1255;48.716;9.124;2023-05-16T06:59:27;12.00;99.90
2489;DHT22;1255;48.716;9.124;2023-05-16T07:01:54;12.00;99.90
2489;DHT22;1255;48.716;9.124;2023-05-16T07:04:21;12.10;99.90
2489;DHT22;1255;48.716;9.124;2023-05-16T07:06:49;12.10;99.90
2489;DHT22;1255;48.716;9.124;2023-05-16T07:09:15;12.00;99.90
2489;DHT22;1255;48.716;9.124;2023-05-16T07:11:42;12.00;99.90
2489;DHT22;1255;48.716;9.124;2023-05-16T07:14:09;12.00;99.90
2489;DHT22;1255;48.716;9.124;2023-05-16T07:16:35;12.00;99.90
2489;DHT22;1255;48.716;9.124;2023-05-16T07:19:02;12.00;99.90
2489;DHT22;1255;48.716;9.124;2023-05-16T07:21:29;12.00;99.90
2489;DHT22;1255;48.716;9.124;2023-05-16T07:23:57;12.10;99.90
2489;DHT22;1255;48.716;9.124;2023-05-16T07:26:24;12.20;99.90
2489;DHT22;1255;48.716;9.124;2023-05-16T07:28:51;12.30;99.90
2489;DHT22;1255;48.716;9.124;2023-05-16T07:31:18;12.40;99.90
2489;DHT22;1255;48.716;9.124;2023-05-16T07:33:45;12.50;99.90
2489;DHT22;1255;48.716;9.124;2023-05-16T07:36:13;12.50;99.90
2489;DHT22;1255;48.716;9.124;2023-05-16T07:38:40;12.50;99.90
2489;DHT22;1255;48.716;9.124;2023-05-16T07:41:08;12.40;99.90
2489;DHT22;1255;48.716;9.124;2023-05-16T07:43:35;12.50;99.90
2489;DHT22;1255;48.716;9.124;2023-05-16T07:46:02;12.40;99.90
2489;DHT22;1255;48.716;9.124;2023-05-16T07:48:29;12.40;99.90
2489;DHT22;1255;48.716;9.124;2023-05-16T07:50:56;12.30;99.90
2489;DHT22;1255;48.716;9.124;2023-05-16T07:53:22;12.40;99.90
2489;DHT22;1255;48.716;9.124;2023-05-16T07:55:49;12.50;99.90
2489;DHT22;1255;48.716;9.124;2023-05-16T07:58:17;12.60;99.90
2489;DHT22;1255;48.716;9.124;2023-05-16T08:00:44;12.70;99.90
2489;DHT22;1255;48.716;9.124;2023-05-16T08:03:11;12.70;99.90
2489;DHT22;1255;48.716;9.124;2023-05-16T08:05:37;12.70;99.90
2489;DHT22;1255;48.716;9.124;2023-05-16T08:08:04;12.60;99.90
2489;DHT22;1255;48.716;9.124;2023-05-16T08:10:31;12.60;99.90
2489;DHT22;1255;48.716;9.124;2023-05-16T08:12:58;12.70;99.90
2489;DHT22;1255;48.716;9.124;2023-05-16T08:15:27;12.90;99.90
2489;DHT22;1255;48.716;9.124;2023-05-16T08:17:55;13.00;99.90
2489;DHT22;1255;48.716;9.124;2023-05-16T08:20:22;13.00;99.90
2489;DHT22;1255;48.716;9.124;2023-05-16T08:22:49;13.10;99.90
2489;DHT22;1255;48.716;9.124;2023-05-16T08:25:16;13.10;99.90
2489;DHT22;1255;48.716;9.124;2023-05-16T08:27:43;13.10;99.90
2489;DHT22;1255;48.716;9.124;2023-05-16T08:30:11;13.00;99.90
2489;DHT22;1255;48.716;9.124;2023-05-16T08:32:39;12.90;99.90
2489;DHT22;1255;48.716;9.124;2023-05-16T08:35:07;12.80;99.90
2489;DHT22;1255;48.716;9.124;2023-05-16T08:37:35;12.80;99.90
2489;DHT22;1255;48.716;9.124;2023-05-16T08:40:05;12.80;99.90
2489;DHT22;1255;48.716;9.124;2023-05-16T08:42:33;12.70;99.90
2489;DHT22;1255;48.716;9.124;2023-05-16T08:45:00;12.60;99.90
2489;DHT22;1255;48.716;9.124;2023-05-16T08:47:29;12.60;99.90
2489;DHT22;1255;48.716;9.124;2023-05-16T08:49:57;12.60;99.90
2489;DHT22;1255;48.716;9.124;2023-05-16T08:52:27;12.80;99.90
2489;DHT22;1255;48.716;9.124;2023-05-16T08:54:55;12.70;99.90
2489;DHT22;1255;48.716;9.124;2023-05-16T08:57:23;12.60;99.90
2489;DHT22;1255;48.716;9.124;2023-05-16T08:59:50;12.60;99.90
2489;DHT22;1255;48.716;9.124;2023-05-16T09:02:18;12.60;99.90
2489;DHT22;1255;48.716;9.124;2023-05-16T09:04:47;12.50;99.90
2489;DHT22;1255;48.716;9.124;2023-05-16T09:07:16;12.30;99.90
2489;DHT22;1255;48.716;9.124;2023-05-16T09:09:42;12.10;99.90
2489;DHT22;1255;48.716;9.124;2023-05-16T09:12:09;12.00;99.90
2489;DHT22;1255;48.716;9.124;2023-05-16T09:14:36;12.00;99.90
2489;DHT22;1255;48.716;9.124;2023-05-16T09:17:04;12.00;99.90
2489;DHT22;1255;48.716;9.124;2023-05-16T09:19:38;12.00;99.90
2489;DHT22;1255;48.716;9.124;2023-05-16T09:22:06;12.00;99.90
2489;DHT22;1255;48.716;9.124;2023-05-16T09:24:38;12.10;99.90
2489;DHT22;1255;48.716;9.124;2023-05-16T09:27:09;12.10;99.90
2489;DHT22;1255;48.716;9.124;2023-05-16T09:29:36;12.10;99.90
2489;DHT22;1255;48.716;9.124;2023-05-16T09:32:10;12.10;99.90
2489;DHT22;1255;48.716;9.124;2023-05-16T09:34:38;12.10;99.90
2489;DHT22;1255;48.716;9.124;2023-05-16T09:37:05;12.30;99.90
2489;DHT22;1255;48.716;9.124;2023-05-16T09:39:32;12.40;99.90
2489;DHT22;1255;48.716;9.124;2023-05-16T09:42:00;12.60;99.90
2489;DHT22;1255;48.716;9.124;2023-05-16T09:44:27;12.90;99.90
2489;DHT22;1255;48.716;9.124;2023-05-16T09:46:54;13.10;99.90
2489;DHT22;1255;48.716;9.124;2023-05-16T09:49:20;13.30;99.90
2489;DHT22;1255;48.716;9.124;2023-05-16T09:51:49;13.40;99.90
2489;DHT22;1255;48.716;9.124;2023-05-16T09:54:29;13.60;99.90
2489;DHT22;1255;48.716;9.124;2023-05-16T09:56:56;13.70;99.90
2489;DHT22;1255;48.716;9.124;2023-05-16T09:59:24;13.90;99.90
2489;DHT22;1255;48.716;9.124;2023-05-16T10:01:52;14.00;99.90
2489;DHT22;1255;48.716;9.124;2023-05-16T10:04:19;13.90;99.90
2489;DHT22;1255;48.716;9.124;2023-05-16T10:06:46;14.00;99.90
2489;DHT22;1255;48.716;9.124;2023-05-16T10:09:15;13.90;99.90
2489;DHT22;1255;48.716;9.124;2023-05-16T10:11:42;13.80;99.90
2489;DHT22;1255;48.716;9.124;2023-05-16T10:14:10;13.70;99.90
2489;DHT22;1255;48.716;9.124;2023-05-16T10:16:41;13.50;99.90
2489;DHT22;1255;48.716;9.124;2023-05-16T10:19:08;13.40;99.90
2489;DHT22;1255;48.716;9.124;2023-05-16T10:21:37;13.70;99.90
2489;DHT22;1255;48.716;9.124;2023-05-16T10:24:06;14.00;99.90
2489;DHT22;1255;48.716;9.124;2023-05-16T10:26:36;14.40;99.90
2489;DHT22;1255;48.716;9.124;2023-05-16T10:29:03;14.60;99.90
2489;DHT22;1255;48.716;9.124;2023-05-16T10:31:31;14.80;99.90
2489;DHT22;1255;48.716;9.124;2023-05-16T10:33:59;14.70;99.90
2489;DHT22;1255;48.716;9.124;2023-05-16T10:36:26;14.50;99.90
2489;DHT22;1255;48.716;9.124;2023-05-16T10:38:54;14.20;99.90
2489;DHT22;1255;48.716;9.124;2023-05-16T10:41:21;14.00;99.90
2489;DHT22;1255;48.716;9.124;2023-05-16T10:43:55;13.90;99.90
2489;DHT22;1255;48.716;9.124;2023-05-16T10:46:25;13.90;99.90
2489;DHT22;1255;48.716;9.124;2023-05-16T10:48:51;13.90;99.90
2489;DHT22;1255;48.716;9.124;2023-05-16T10:51:36;13.70;99.90
2489;DHT22;1255;48.716;9.124;2023-05-16T10:54:08;13.40;99.90
2489;DHT22;1255;48.716;9.124;2023-05-16T10:56:35;13.30;99.90
2489;DHT22;1255;48.716;9.124;2023-05-16T10:59:02;13.00;99.90
2489;DHT22;1255;48.716;9.124;2023-05-16T11:01:32;12.80;99.90
2489;DHT22;1255;48.716;9.124;2023-05-16T11:04:04;12.70;99.90
2489;DHT22;1255;48.716;9.124;2023-05-16T11:06:32;12.60;99.90
2489;DHT22;1255;48.716;9.124;2023-05-16T11:09:20;12.50;99.90
2489;DHT22;1255;48.716;9.124;2023-05-16T11:11:52;12.30;99.90
2489;DHT22;1255;48.716;9.124;2023-05-16T11:14:22;12.10;99.90
2489;DHT22;1255;48.716;9.124;2023-05-16T11:16:49;12.00;99.90
2489;DHT22;1255;48.716;9.124;2023-05-16T11:19:34;11.80;99.90
2489;DHT22;1255;48.716;9.124;2023-05-16T11:22:09;11.70;99.90
2489;DHT22;1255;48.716;9.124;2023-05-16T11:24:38;11.70;99.90
2489;DHT22;1255;48.716;9.124;2023-05-16T11:27:05;11.60;99.90
2489;DHT22;1255;48.716;9.124;2023-05-16T11:29:33;11.70;99.90
2489;DHT22;1255;48.716;9.124;2023-05-16T11:32:01;11.70;99.90
2489;DHT22;1255;48.716;9.124;2023-05-16T11:34:28;11.60;99.90
2489;DHT22;1255;48.716;9.124;2023-05-16T11:36:55;11.60;99.90
2489;DHT22;1255;48.716;9.124;2023-05-16T11:39:22;11.50;99.90
2489;DHT22;1255;48.716;9.124;2023-05-16T11:41:52;11.40;99.90
2489;DHT22;1255;48.716;9.124;2023-05-16T11:44:19;11.40;99.90
2489;DHT22;1255;48.716;9.124;2023-05-16T11:46:46;11.50;99.90
2489;DHT22;1255;48.716;9.124;2023-05-16T11:49:13;11.50;99.90
2489;DHT22;1255;48.716;9.124;2023-05-16T11:51:40;11.50;99.90
2489;DHT22;1255;48.716;9.124;2023-05-16T11:54:08;11.50;99.90
2489;DHT22;1255;48.716;9.124;2023-05-16T11:56:36;11.50;99.90
2489;DHT22;1255;48.716;9.124;2023-05-16T11:59:04;11.60;99.90
2489;DHT22;1255;48.716;9.124;2023-05-16T12:01:32;11.70;99.90
2489;DHT22;1255;48.716;9.124;2023-05-16T12:03:59;11.70;99.90
2489;DHT22;1255;48.716;9.124;2023-05-16T12:06:26;11.80;99.90
2489;DHT22;1255;48.716;9.124;2023-05-16T12:08:55;11.90;99.90
2489;DHT22;1255;48.716;9.124;2023-05-16T12:11:22;12.00;99.90
2489;DHT22;1255;48.716;9.124;2023-05-16T12:13:49;12.00;99.90
2489;DHT22;1255;48.716;9.124;2023-05-16T12:16:18;12.00;99.90
2489;DHT22;1255;48.716;9.124;2023-05-16T12:18:45;12.00;99.90
2489;DHT22;1255;48.716;9.124;2023-05-16T12:21:12;11.90;99.90
2489;DHT22;1255;48.716;9.124;2023-05-16T12:23:41;11.90;99.90
2489;DHT22;1255;48.716;9.124;2023-05-16T12:26:07;11.90;99.90
2489;DHT22;1255;48.716;9.124;2023-05-16T12:28:34;11.90;99.90
2489;DHT22;1255;48.716;9.124;2023-05-16T12:31:09;12.00;99.90
2489;DHT22;1255;48.716;9.124;2023-05-16T12:33:38;12.00;99.90
2489;DHT22;1255;48.716;9.124;2023-05-16T12:36:12;12.00;99.90
2489;DHT22;1255;48.716;9.124;2023-05-16T12:38:39;12.20;99.90
2489;DHT22;1255;48.716;9.124;2023-05-16T12:41:06;12.30;99.90
2489;DHT22;1255;48.716;9.124;2023-05-16T12:43:33;12.50;99.90
2489;DHT22;1255;48.716;9.124;2023-05-16T12:45:59;12.60;99.90
2489;DHT22;1255;48.716;9.124;2023-05-16T12:48:31;12.60;99.90
2489;DHT22;1255;48.716;9.124;2023-05-16T12:51:10;12.50;99.90
2489;DHT22;1255;48.716;9.124;2023-05-16T12:53:40;12.50;99.90
2489;DHT22;1255;48.716;9.124;2023-05-16T12:56:08;12.40;99.90
2489;DHT22;1255;48.716;9.124;2023-05-16T12:58:34;12.30;99.90
2489;DHT22;1255;48.716;9.124;2023-05-16T13:01:01;12.30;99.90
2489;DHT22;1255;48.716;9.124;2023-05-16T13:03:29;12.30;99.90
2489;DHT22;1255;48.716;9.124;2023-05-16T13:05:55;12.20;99.90
2489;DHT22;1255;48.716;9.124;2023-05-16T13:08:24;12.10;99.90
2489;DHT22;1255;48.716;9.124;2023-05-16T13:10:51;12.10;99.90
2489;DHT22;1255;48.716;9.124;2023-05-16T13:13:17;12.00;99.90
2489;DHT22;1255;48.716;9.124;2023-05-16T13:15:44;11.90;99.90
2489;DHT22;1255;48.716;9.124;2023-05-16T13:18:11;11.80;99.90
2489;DHT22;1255;48.716;9.124;2023-05-16T13:20:38;11.80;99.90
2489;DHT22;1255;48.716;9.124;2023-05-16T13:23:04;11.70;99.90
2489;DHT22;1255;48.716;9.124;2023-05-16T13:25:33;11.70;99.90
2489;DHT22;1255;48.716;9.124;2023-05-16T13:28:00;11.60;99.90
2489;DHT22;1255;48.716;9.124;2023-05-16T13:30:27;11.60;99.90
2489;DHT22;1255;48.716;9.124;2023-05-16T13:32:55;11.60;99.90
2489;DHT22;1255;48.716;9.124;2023-05-16T13:35:23;11.50;99.90
2489;DHT22;1255;48.716;9.124;2023-05-16T13:37:49;11.30;99.90
2489;DHT22;1255;48.716;9.124;2023-05-16T13:40:16;11.30;99.90
2489;DHT22;1255;48.716;9.124;2023-05-16T13:42:44;11.30;99.90
2489;DHT22;1255;48.716;9.124;2023-05-16T13:45:11;11.30;99.90
2489;DHT22;1255;48.716;9.124;2023-05-16T13:47:38;11.20;99.90
2489;DHT22;1255;48.716;9.124;2023-05-16T13:50:06;11.20;99.90
2489;DHT22;1255;48.716;9.124;2023-05-16T13:52:34;11.10;99.90
2489;DHT22;1255;48.716;9.124;2023-05-16T13:55:01;11.00;99.90
2489;DHT22;1255;48.716;9.124;2023-05-16T13:57:28;11.00;99.90
2489;DHT22;1255;48.716;9.124;2023-05-16T13:59:56;11.00;99.90
2489;DHT22;1255;48.716;9.124;2023-05-16T14:02:23;11.00;99.90
2489;DHT22;1255;48.716;9.124;2023-05-16T14:04:50;11.10;99.90
2489;DHT22;1255;48.716;9.124;2023-05-16T14:07:17;11.20;99.90
2489;DHT22;1255;48.716;9.124;2023-05-16T14:09:44;11.20;99.90
2489;DHT22;1255;48.716;9.124;2023-05-16T14:12:10;11.20;99.90
2489;DHT22;1255;48.716;9.124;2023-05-16T14:14:37;11.20;99.90
2489;DHT22;1255;48.716;9.124;2023-05-16T14:17:05;11.20;99.90
2489;DHT22;1255;48.716;9.124;2023-05-16T14:19:32;11.20;99.90
2489;DHT22;1255;48.716;9.124;2023-05-16T14:22:00;11.10;99.90
2489;DHT22;1255;48.716;9.124;2023-05-16T14:24:27;11.10;99.90
2489;DHT22;1255;48.716;9.124;2023-05-16T14:26:54;11.00;99.90
2489;DHT22;1255;48.716;9.124;2023-05-16T14:29:21;11.00;99.90
2489;DHT22;1255;48.716;9.124;2023-05-16T14:31:48;11.10;99.90
2489;DHT22;1255;48.716;9.124;2023-05-16T14:34:17;11.10;99.90
2489;DHT22;1255;48.716;9.124;2023-05-16T14:36:43;11.10;99.90
2489;DHT22;1255;48.716;9.124;2023-05-16T14:39:11;11.20;99.90
2489;DHT22;1255;48.716;9.124;2023-05-16T14:41:38;11.20;99.90
2489;DHT22;1255;48.716;9.124;2023-05-16T14:44:06;11.20;99.90
2489;DHT22;1255;48.716;9.124;2023-05-16T14:46:34;11.20;99.90
2489;DHT22;1255;48.716;9.124;2023-05-16T14:49:01;11.30;99.90
2489;DHT22;1255;48.716;9.124;2023-05-16T14:51:31;11.30;99.90
2489;DHT22;1255;48.716;9.124;2023-05-16T14:53:58;11.30;99.90
2489;DHT22;1255;48.716;9.124;2023-05-16T14:56:25;11.30;99.90
2489;DHT22;1255;48.716;9.124;2023-05-16T14:58:53;11.30;99.90
2489;DHT22;1255;48.716;9.124;2023-05-16T15:01:20;11.30;99.90
2489;DHT22;1255;48.716;9.124;2023-05-16T15:03:48;11.30;99.90
2489;DHT22;1255;48.716;9.124;2023-05-16T15:06:15;11.40;99.90
2489;DHT22;1255;48.716;9.124;2023-05-16T15:08:44;11.40;99.90
2489;DHT22;1255;48.716;9.124;2023-05-16T15:11:11;11.40;99.90
2489;DHT22;1255;48.716;9.124;2023-05-16T15:13:38;11.50;99.90
2489;DHT22;1255;48.716;9.124;2023-05-16T15:16:06;11.50;99.90
2489;DHT22;1255;48.716;9.124;2023-05-16T15:18:33;11.50;99.90
2489;DHT22;1255;48.716;9.124;2023-05-16T15:21:01;11.50;99.90
2489;DHT22;1255;48.716;9.124;2023-05-16T15:23:29;11.50;99.90
2489;DHT22;1255;48.716;9.124;2023-05-16T15:25:57;11.50;99.90
2489;DHT22;1255;48.716;9.124;2023-05-16T15:28:25;11.60;99.90
2489;DHT22;1255;48.716;9.124;2023-05-16T15:30:53;11.60;99.90
2489;DHT22;1255;48.716;9.124;2023-05-16T15:33:20;11.60;99.90
2489;DHT22;1255;48.716;9.124;2023-05-16T15:35:47;11.70;99.90
2489;DHT22;1255;48.716;9.124;2023-05-16T15:38:14;11.80;99.90
2489;DHT22;1255;48.716;9.124;2023-05-16T15:40:41;11.90;99.90
2489;DHT22;1255;48.716;9.124;2023-05-16T15:43:09;12.10;99.90
2489;DHT22;1255;48.716;9.124;2023-05-16T15:45:36;12.20;99.90
2489;DHT22;1255;48.716;9.124;2023-05-16T15:48:03;12.30;99.90
2489;DHT22;1255;48.716;9.124;2023-05-16T15:50:30;12.20;99.90
2489;DHT22;1255;48.716;9.124;2023-05-16T15:52:56;12.20;99.90
2489;DHT22;1255;48.716;9.124;2023-05-16T15:55:23;12.20;99.90
2489;DHT22;1255;48.716;9.124;2023-05-16T15:57:50;12.00;99.90
2489;DHT22;1255;48.716;9.124;2023-05-16T16:00:19;11.90;99.90
2489;DHT22;1255;48.716;9.124;2023-05-16T16:02:46;12.00;99.90
2489;DHT22;1255;48.716;9.124;2023-05-16T16:05:13;12.10;99.90